Time;durP1;ratioP1;P1;durP2;ratioP2;P2;SDS_P1;SDS_P2;PMS_P1;PMS_P2;Temp;Humidity;BMP_temperature;BMP_pressure;BME280_temperature;BME280_humidity;BME280_pressure;Samples;Min_cycle;Max_cycle;Signal;HPM_P1;HPM_P2
2022/10/29 00:01:41;;;;;;;150.80;27.10;;;;;;;;;;5032270;28;20491;-72
2022/10/29 00:04:06;;;;;;;59.87;24.23;;;;;;;;;;5038543;28;20091;-71
2022/10/29 00:06:31;;;;;;;76.83;28.93;;;;;;;;;;5046842;28;20075;-71
2022/10/29 00:08:56;;;;;;;63.70;26.30;;;;;;;;;;5036401;28;20285;-70
2022/10/29 00:11:22;;;;;;;95.07;26.47;;;;;;;;;;5030707;28;20029;-71
2022/10/29 00:13:51;;;;;;;140.00;28.02;;;;;;;;;;5033601;28;20282;-71
2022/10/29 00:16:18;;;;;;;149.43;28.55;;;;;;;;;;5029112;28;20029;-70
2022/10/29 00:18:44;;;;;;;93.63;26.98;;;;;;;;;;5036665;28;20061;-71
2022/10/29 00:21:11;;;;;;;59.60;25.63;;;;;;;;;;5029741;28;20070;-71
2022/10/29 00:23:36;;;;;;;154.07;25.55;;;;;;;;;;5038921;28;20132;-71
2022/10/29 00:26:02;;;;;;;150.30;25.00;;;;;;;;;;5031136;28;22239;-71
2022/10/29 00:28:27;;;;;;;113.53;24.73;;;;;;;;;;5030302;28;20278;-72
2022/10/29 00:30:53;;;;;;;102.32;26.10;;;;;;;;;;5034387;28;20048;-72
2022/10/29 00:33:19;;;;;;;210.90;27.55;;;;;;;;;;5035100;28;20375;-71
2022/10/29 00:35:54;;;;;;;145.80;25.08;;;;;;;;;;5037217;28;20079;-72
2022/10/29 00:38:19;;;;;;;179.52;24.70;;;;;;;;;;5030359;28;20025;-72
2022/10/29 00:40:44;;;;;;;137.23;23.70;;;;;;;;;;5030055;28;20136;-72
2022/10/29 00:43:10;;;;;;;66.20;21.23;;;;;;;;;;5041104;28;20032;-74
2022/10/29 00:45:38;;;;;;;67.28;21.27;;;;;;;;;;5035869;28;20021;-72
2022/10/29 00:48:04;;;;;;;217.88;25.70;;;;;;;;;;5035679;28;20025;-71
2022/10/29 00:50:29;;;;;;;48.78;21.35;;;;;;;;;;5038753;28;20426;-72
2022/10/29 00:52:54;;;;;;;121.07;23.13;;;;;;;;;;5037708;28;20025;-72
2022/10/29 00:55:19;;;;;;;109.03;23.02;;;;;;;;;;5036632;28;20037;-71
2022/10/29 00:57:48;;;;;;;105.82;23.58;;;;;;;;;;5036181;28;20507;-71
2022/10/29 01:00:15;;;;;;;146.00;24.38;;;;;;;;;;5033312;28;20033;-71
2022/10/29 01:02:42;;;;;;;148.98;24.35;;;;;;;9.87;nan;101771.94;5038954;28;20096;-72
2022/10/29 01:05:08;;;;;;;120.13;22.15;;;;;;;;;;5040935;28;20051;-71
2022/10/29 01:07:33;;;;;;;100.30;22.10;;;;;;;;;;5040925;28;20025;-72
2022/10/29 01:09:58;;;;;;;191.52;22.38;;;;;;;;;;5038074;28;20029;-71
2022/10/29 01:12:31;;;;;;;196.60;23.53;;;;;;;;;;5041198;28;20022;-72
2022/10/29 01:15:04;;;;;;;121.93;19.98;;;;;;;;;;5036902;28;20616;-72
2022/10/29 01:17:31;;;;;;;121.60;22.20;;;;;;;;;;5032539;28;20026;-71
2022/10/29 01:20:15;;;;;;;119.95;18.92;;;;;;;;;;5051811;28;20021;-72
2022/10/29 01:22:41;;;;;;;58.47;19.60;;;;;;;;;;5037098;28;20029;-72
2022/10/29 01:25:12;;;;;;;66.87;19.97;;;;;;;;;;5035516;28;20497;-72
2022/10/29 01:27:56;;;;;;;111.10;20.42;;;;;;;;;;5034394;28;20022;-70
2022/10/29 01:30:43;;;;;;;69.40;19.17;;;;;;;;;;5040569;28;20033;-72
2022/10/29 01:33:08;;;;;;;111.32;19.75;;;;;;;;;;5034387;28;20026;-72
2022/10/29 01:35:36;;;;;;;72.07;19.50;;;;;;;;;;5037523;28;20029;-72
2022/10/29 01:38:10;;;;;;;112.10;21.83;;;;;;;;;;5031897;28;21402;-72
2022/10/29 01:40:38;;;;;;;63.50;19.48;;;;;;;;;;5039838;28;20399;-72
2022/10/29 01:43:07;;;;;;;134.32;19.77;;;;;;;;;;5032212;28;20037;-72
2022/10/29 01:45:34;;;;;;;67.07;19.73;;;;;;;;;;5042681;28;20029;-72
2022/10/29 01:48:11;;;;;;;36.70;19.08;;;;;;;;;;5039283;28;20045;-72
2022/10/29 01:50:39;;;;;;;110.78;20.15;;;;;;;9.54;nan;101743.44;5038491;28;20079;-71
2022/10/29 01:53:05;;;;;;;84.75;19.50;;;;;;;;;;5040072;28;20033;-72
2022/10/29 01:55:34;;;;;;;75.47;19.95;;;;;;;;;;5039511;28;20489;-72
2022/10/29 01:57:59;;;;;;;86.13;19.23;;;;;;;;;;5042608;28;20049;-73
2022/10/29 02:00:24;;;;;;;99.80;18.90;;;;;;;;;;5038042;28;20038;-72
2022/10/29 02:02:50;;;;;;;104.35;19.27;;;;;;;;;;5034778;28;20041;-72
2022/10/29 02:05:18;;;;;;;120.67;17.90;;;;;;;;;;5035316;28;20584;-72
2022/10/29 02:07:47;;;;;;;74.68;16.73;;;;;;;;;;5036039;28;20053;-71
2022/10/29 02:10:31;;;;;;;178.35;19.33;;;;;;;;;;5043742;28;20033;-72
2022/10/29 02:12:56;;;;;;;40.53;17.52;;;;;;;;;;5053873;28;20041;-72
2022/10/29 02:15:24;;;;;;;64.40;19.27;;;;;;;;;;5036349;28;20427;-71
2022/10/29 02:17:50;;;;;;;59.85;18.60;;;;;;;;;;5034242;28;20391;-72
2022/10/29 02:20:16;;;;;;;77.32;18.90;;;;;;;;;;5041554;28;20028;-72
2022/10/29 02:22:41;;;;;;;62.72;19.40;;;;;;;;;;5049475;28;20086;-72
2022/10/29 02:25:07;;;;;;;54.37;18.03;;;;;;;;;;5042273;28;20116;-72
2022/10/29 02:27:32;;;;;;;74.40;18.50;;;;;;;;;;5055013;28;20285;-73
2022/10/29 02:29:57;;;;;;;72.57;17.70;;;;;;;;;;5036129;28;20056;-72
2022/10/29 02:32:23;;;;;;;144.77;20.30;;;;;;;;;;5035595;28;20032;-72
2022/10/29 02:34:48;;;;;;;54.83;17.10;;;;;;;9.10;nan;101747.75;5050458;28;20037;-72
2022/10/29 02:37:13;;;;;;;131.50;19.85;;;;;;;;;;5036806;28;20468;-72
2022/10/29 02:39:38;;;;;;;156.87;20.30;;;;;;;;;;5038626;28;20040;-73
2022/10/29 02:42:04;;;;;;;106.90;18.40;;;;;;;;;;5040156;28;20358;-72
2022/10/29 02:44:29;;;;;;;83.77;20.20;;;;;;;;;;5037654;28;20287;-72
2022/10/29 02:46:54;;;;;;;145.83;18.93;;;;;;;;;;5035272;28;20370;-72
2022/10/29 02:49:19;;;;;;;100.77;19.63;;;;;;;;;;5038577;28;20697;-72
2022/10/29 02:51:45;;;;;;;64.60;18.30;;;;;;;;;;5036449;28;20040;-72
2022/10/29 02:54:10;;;;;;;87.38;20.30;;;;;;;;;;5036688;28;20025;-73
2022/10/29 02:56:35;;;;;;;66.10;18.00;;;;;;;;;;5034782;28;20044;-73
2022/10/29 02:59:01;;;;;;;44.00;18.33;;;;;;;;;;5040822;28;20100;-71
2022/10/29 03:01:26;;;;;;;91.97;19.75;;;;;;;;;;5037226;28;20278;-72
2022/10/29 03:03:51;;;;;;;104.50;19.63;;;;;;;;;;5037138;28;20037;-73
2022/10/29 03:06:17;;;;;;;75.55;19.05;;;;;;;;;;5037947;28;20032;-71
2022/10/29 03:08:43;;;;;;;121.65;19.90;;;;;;;;;;5038248;28;20025;-72
2022/10/29 03:11:08;;;;;;;90.93;18.85;;;;;;;;;;5035195;28;20548;-72
2022/10/29 03:13:34;;;;;;;131.00;20.45;;;;;;;;;;5038884;28;20381;-71
2022/10/29 03:15:59;;;;;;;78.10;17.00;;;;;;;;;;5034671;28;20045;-72
2022/10/29 03:18:24;;;;;;;179.37;20.03;;;;;;;;;;5051901;28;20332;-71
2022/10/29 03:20:50;;;;;;;105.27;18.67;;;;;;;;;;5036707;28;20743;-72
2022/10/29 03:23:15;;;;;;;48.05;19.08;;;;;;;;;;5040296;28;20494;-71
2022/10/29 03:25:40;;;;;;;155.43;19.90;;;;;;;;;;5035501;28;20026;-71
2022/10/29 03:28:05;;;;;;;75.03;18.67;;;;;;;;;;5033092;28;20028;-72
2022/10/29 03:30:31;;;;;;;69.18;18.98;;;;;;;;;;5030692;28;20685;-72
2022/10/29 03:32:56;;;;;;;126.65;22.48;;;;;;;;;;5036294;28;20025;-72
2022/10/29 03:35:21;;;;;;;72.50;22.10;;;;;;;;;;5035816;28;20036;-71
2022/10/29 03:37:50;;;;;;;86.80;27.55;;;;;;;;;;5032927;28;20052;-72
2022/10/29 03:40:15;;;;;;;77.15;21.98;;;;;;;;;;5054011;28;20039;-71
2022/10/29 03:42:40;;;;;;;61.38;20.40;;;;;;;;;;5041826;28;20017;-72
2022/10/29 03:45:06;;;;;;;85.87;23.13;;;;;;;;;;5032185;28;20037;-72
2022/10/29 03:47:31;;;;;;;63.33;21.45;;;;;;;;;;5037831;28;20331;-72
2022/10/29 03:49:56;;;;;;;74.85;20.48;;;;;;;;;;5049465;28;20528;-72
2022/10/29 03:52:22;;;;;;;74.80;21.97;;;;;;;;;;5040158;28;20025;-72
2022/10/29 03:54:47;;;;;;;82.27;26.00;;;;;;;;;;5036426;28;20057;-72
2022/10/29 03:57:12;;;;;;;117.17;23.60;;;;;;;;;;5036636;28;20287;-72
2022/10/29 03:59:37;;;;;;;72.97;20.97;;;;;;;;;;5036381;28;20084;-72
2022/10/29 04:02:03;;;;;;;53.13;21.20;;;;;;;;;;5048378;28;20286;-72
2022/10/29 04:04:28;;;;;;;96.33;20.43;;;;;;;;;;5031412;28;20429;-72
2022/10/29 04:06:53;;;;;;;118.07;22.80;;;;;;;;;;5034679;28;20288;-72
2022/10/29 04:09:18;;;;;;;97.77;22.47;;;;;;;;;;5036377;28;20116;-71
2022/10/29 04:11:43;;;;;;;77.53;20.23;;;;;;;;;;5036548;28;20281;-72
2022/10/29 04:14:09;;;;;;;94.70;20.73;;;;;;;;;;5033785;28;20112;-72
2022/10/29 04:16:34;;;;;;;73.70;21.70;;;;;;;;;;5031625;28;20298;-71
2022/10/29 04:18:59;;;;;;;55.63;20.30;;;;;;;;;;5033642;28;20060;-72
2022/10/29 04:21:24;;;;;;;78.57;20.85;;;;;;;;;;5032474;28;20042;-72
2022/10/29 04:23:50;;;;;;;61.80;20.50;;;;;;;;;;5035981;28;20021;-71
2022/10/29 04:26:16;;;;;;;84.72;20.83;;;;;;;;;;5047885;28;20483;-71
2022/10/29 04:28:41;;;;;;;84.50;21.95;;;;;;;;;;5032327;28;20406;-71
2022/10/29 04:31:08;;;;;;;53.07;21.50;;;;;;;;;;5030775;28;20029;-72
2022/10/29 04:33:33;;;;;;;47.58;21.83;;;;;;;;;;5048601;28;20033;-71
2022/10/29 04:35:59;;;;;;;70.17;22.30;;;;;;;;;;5027353;28;20042;-72
2022/10/29 04:38:24;;;;;;;55.08;21.15;;;;;;;;;;5028368;28;20297;-72
2022/10/29 04:40:49;;;;;;;50.47;22.23;;;;;;;;;;5036745;28;20502;-72
2022/10/29 04:43:15;;;;;;;43.40;21.55;;;;;;;;;;5033884;28;20095;-72
2022/10/29 04:45:40;;;;;;;94.70;24.00;;;;;;;;;;5032513;28;20025;-72
2022/10/29 04:48:06;;;;;;;63.33;22.23;;;;;;;;;;5051314;28;20033;-72
2022/10/29 04:50:31;;;;;;;73.13;22.55;;;;;;;;;;5036973;28;20024;-71
2022/10/29 04:53:00;;;;;;;57.60;21.10;;;;;;;;;;5035899;28;20120;-72
2022/10/29 04:55:26;;;;;;;77.57;22.15;;;;;;;;;;5033594;28;20029;-72
2022/10/29 04:57:51;;;;;;;113.50;24.38;;;;;;;;;;5036678;28;20045;-73
2022/10/29 05:00:16;;;;;;;88.50;22.43;;;;;;;;;;5052871;28;20743;-72
2022/10/29 05:02:45;;;;;;;50.70;21.33;;;;;;;;;;5036134;28;20313;-72
2022/10/29 05:05:11;;;;;;;58.45;21.30;;;;;;;;;;5036071;28;20029;-72
2022/10/29 05:07:36;;;;;;;54.57;20.27;;;;;;;;;;5031597;28;20033;-72
2022/10/29 05:10:01;;;;;;;46.43;20.30;;;;;;;;;;5031092;28;20029;-72
2022/10/29 05:12:26;;;;;;;40.53;20.25;;;;;;;;;;5037464;28;20579;-72
2022/10/29 05:14:52;;;;;;;56.63;20.53;;;;;;;;;;5033543;28;20487;-72
2022/10/29 05:17:17;;;;;;;61.77;20.67;;;;;;;;;;5032743;28;20563;-72
2022/10/29 05:19:42;;;;;;;49.20;21.17;;;;;;;;;;5049470;28;20275;-71
2022/10/29 05:22:07;;;;;;;31.97;19.37;;;;;;;;;;5030461;28;20044;-72
2022/10/29 05:24:33;;;;;;;43.60;22.63;;;;;;;;;;5038140;28;20060;-71
2022/10/29 05:26:58;;;;;;;64.70;22.77;;;;;;;;;;5030728;28;20053;-73
2022/10/29 05:29:23;;;;;;;71.73;23.20;;;;;;;;;;5037015;28;20079;-72
2022/10/29 05:31:51;;;;;;;58.77;21.70;;;;;;;;;;5030407;28;20285;-71
2022/10/29 05:34:16;;;;;;;62.92;22.80;;;;;;;;;;5038671;28;20415;-73
2022/10/29 05:36:41;;;;;;;51.05;22.08;;;;;;;;;;5050719;28;20029;-73
2022/10/29 05:39:07;;;;;;;53.67;20.80;;;;;;;;;;5029348;28;20060;-73
2022/10/29 05:41:32;;;;;;;54.03;20.90;;;;;;;;;;5035631;28;20029;-73
2022/10/29 05:43:57;;;;;;;60.77;21.17;;;;;;;;;;5044408;28;20017;-73
2022/10/29 05:46:22;;;;;;;71.13;22.17;;;;;;;;;;5029252;28;20289;-74
2022/10/29 05:48:47;;;;;;;58.23;21.27;;;;;;;;;;5044806;28;20612;-74
2022/10/29 05:51:13;;;;;;;59.03;20.23;;;;;;;;;;5039191;28;20282;-73
2022/10/29 05:53:38;;;;;;;59.87;21.83;;;;;;;;;;5055519;28;20025;-73
2022/10/29 05:56:03;;;;;;;42.37;21.93;;;;;;;;;;5039632;28;20112;-73
2022/10/29 05:58:30;;;;;;;51.80;22.13;;;;;;;;;;5048086;28;20057;-73
2022/10/29 06:00:55;;;;;;;51.87;22.53;;;;;;;;;;5052100;28;20041;-73
2022/10/29 06:03:21;;;;;;;81.83;22.80;;;;;;;;;;5040607;28;21217;-71
2022/10/29 06:05:47;;;;;;;57.53;23.13;;;;;;;;;;5033968;28;20036;-71
2022/10/29 06:08:12;;;;;;;40.47;23.23;;;;;;;;;;5032818;28;20033;-73
2022/10/29 06:10:38;;;;;;;73.43;24.55;;;;;;;;;;5028984;28;20017;-72
2022/10/29 06:13:10;;;;;;;52.78;26.17;;;;;;;;;;5047473;28;20139;-72
2022/10/29 06:15:35;;;;;;;96.50;40.53;;;;;;;;;;5053766;28;20041;-72
2022/10/29 06:18:00;;;;;;;98.53;49.42;;;;;;;;;;5035527;28;20079;-74
2022/10/29 06:20:26;;;;;;;89.70;33.33;;;;;;;;;;5031196;28;20025;-74
2022/10/29 06:22:55;;;;;;;65.17;34.17;;;;;;;;;;5031656;28;20037;-74
2022/10/29 06:25:20;;;;;;;61.60;32.05;;;;;;;;;;5038095;28;20286;-74
2022/10/29 06:30:13;;;;;;;60.10;27.55;;;;;;;;;;5041737;28;20049;-74
2022/10/29 06:32:39;;;;;;;42.67;24.90;;;;;;;;;;5052476;28;20044;-74
2022/10/29 06:35:04;;;;;;;39.93;24.30;;;;;;;;;;5046311;28;20068;-72
2022/10/29 06:37:32;;;;;;;41.92;22.60;;;;;;;;;;5052654;28;20032;-72
2022/10/29 06:39:57;;;;;;;34.42;21.10;;;;;;;;;;5045587;28;20029;-72
2022/10/29 06:42:22;;;;;;;41.38;24.73;;;;;;;;;;5035444;28;20028;-71
2022/10/29 06:44:47;;;;;;;69.47;22.80;;;;;;;;;;5044980;28;20025;-72
2022/10/29 06:47:13;;;;;;;35.03;22.17;;;;;;;;;;5054723;28;20273;-72
2022/10/29 06:49:38;;;;;;;53.87;20.80;;;;;;;;;;5038386;28;20033;-71
2022/10/29 06:52:03;;;;;;;51.07;19.67;;;;;;;;;;5026869;28;20450;-72
2022/10/29 06:54:29;;;;;;;66.60;20.38;;;;;;;;;;5060592;28;20043;-72
2022/10/29 06:56:54;;;;;;;63.20;19.77;;;;;;;;;;5057662;28;20381;-72
2022/10/29 06:59:19;;;;;;;64.27;18.67;;;;;;;;;;5041452;28;20282;-73
2022/10/29 07:01:45;;;;;;;33.27;17.13;;;;;;;;;;5056823;28;20025;-73
2022/10/29 07:04:10;;;;;;;29.67;19.10;;;;;;;;;;5034250;28;20066;-72
2022/10/29 07:06:35;;;;;;;28.80;19.67;;;;;;;;;;5034609;28;20406;-71
2022/10/29 07:09:01;;;;;;;44.63;19.93;;;;;;;;;;5037509;28;20036;-71
2022/10/29 07:11:26;;;;;;;47.30;20.60;;;;;;;;;;5036670;28;20631;-72
2022/10/29 07:13:51;;;;;;;45.22;19.45;;;;;;;;;;5050109;28;20064;-73
2022/10/29 07:16:17;;;;;;;56.60;20.90;;;;;;;9.22;nan;101794.59;5055034;28;20033;-72
2022/10/29 07:18:42;;;;;;;34.58;20.73;;;;;;;;;;5035102;28;20396;-73
2022/10/29 07:21:08;;;;;;;52.53;20.87;;;;;;;;;;5049832;28;20540;-73
2022/10/29 07:23:33;;;;;;;33.40;20.83;;;;;;;;;;5036702;28;20020;-73
2022/10/29 07:25:59;;;;;;;41.50;21.55;;;;;;;;;;5053057;28;20039;-73
2022/10/29 07:28:24;;;;;;;42.13;21.37;;;;;;;;;;5054143;28;20140;-72
2022/10/29 07:30:50;;;;;;;38.75;22.35;;;;;;;;;;5047668;28;20282;-71
2022/10/29 07:33:16;;;;;;;46.47;22.02;;;;;;;;;;5034745;28;20040;-72
2022/10/29 07:35:41;;;;;;;42.47;23.05;;;;;;;;;;5048690;28;20478;-72
2022/10/29 07:38:07;;;;;;;36.92;22.30;;;;;;;;;;5045743;28;20031;-73
2022/10/29 07:40:33;;;;;;;36.88;21.55;;;;;;;;;;5026419;28;20521;-71
2022/10/29 07:42:58;;;;;;;38.43;21.73;;;;;;;;;;5045635;28;20024;-73
2022/10/29 07:45:24;;;;;;;49.30;22.52;;;;;;;;;;5070445;28;20335;-72
2022/10/29 07:47:56;;;;;;;52.75;22.83;;;;;;;;;;5047858;28;20035;-73
2022/10/29 07:50:22;;;;;;;46.10;26.02;;;;;;;;;;5049676;28;20090;-72
2022/10/29 07:52:47;;;;;;;80.40;36.30;;;;;;;;;;5044575;28;20033;-75
2022/10/29 07:55:12;;;;;;;101.83;46.67;;;;;;;;;;5050161;28;20024;-72
2022/10/29 07:57:37;;;;;;;90.37;39.73;;;;;;;;;;5050340;28;20029;-72
2022/10/29 08:00:03;;;;;;;88.37;40.10;;;;;;;;;;5056496;28;20063;-72
2022/10/29 08:02:28;;;;;;;98.03;43.13;;;;;;;;;;5047068;28;20031;-76
2022/10/29 08:04:53;;;;;;;90.13;38.30;;;;;;;;;;5050885;28;20035;-75
2022/10/29 08:07:18;;;;;;;84.77;37.10;;;;;;;;;;5026619;28;20086;-72
2022/10/29 08:09:44;;;;;;;73.17;34.27;;;;;;;;;;5048288;28;20040;-74
2022/10/29 08:12:09;;;;;;;56.20;28.47;;;;;;;;;;5045647;28;20024;-74
2022/10/29 08:14:35;;;;;;;39.58;23.63;;;;;;;;;;5033966;28;20478;-73
2022/10/29 08:17:00;;;;;;;31.50;20.40;;;;;;;;;;5025883;28;20386;-73
2022/10/29 08:19:25;;;;;;;43.92;21.23;;;;;;;;;;5035895;28;20469;-73
2022/10/29 08:21:51;;;;;;;37.10;20.10;;;;;;;;;;5024026;28;20025;-73
2022/10/29 08:24:16;;;;;;;39.30;20.80;;;;;;;9.98;nan;101784.59;5054107;28;20363;-73
2022/10/29 08:26:41;;;;;;;39.83;21.38;;;;;;;;;;5044911;28;20086;-73
2022/10/29 08:29:06;;;;;;;44.13;21.97;;;;;;;;;;5049750;28;20549;-72
2022/10/29 08:31:32;;;;;;;39.70;21.60;;;;;;;;;;5051182;28;20424;-72
2022/10/29 08:33:57;;;;;;;67.20;26.00;;;;;;;;;;5036916;28;20290;-74
2022/10/29 08:36:22;;;;;;;50.30;25.03;;;;;;;;;;5043075;28;20060;-73
2022/10/29 08:38:47;;;;;;;48.97;25.00;;;;;;;;;;5052217;28;20274;-73
2022/10/29 08:41:24;;;;;;;64.23;26.00;;;;;;;;;;5046466;28;20036;-73
2022/10/29 08:43:55;;;;;;;56.55;27.23;;;;;;;;;;5042499;28;20474;-72
2022/10/29 08:46:32;;;;;;;57.92;27.02;;;;;;;;;;5045983;28;20111;-72
2022/10/29 08:48:59;;;;;;;51.53;26.00;;;;;;;;;;5043533;28;20025;-71
2022/10/29 08:51:38;;;;;;;52.60;25.90;;;;;;;;;;5049334;28;20033;-72
2022/10/29 08:54:03;;;;;;;46.03;25.00;;;;;;;;;;5042673;28;20530;-72
2022/10/29 08:56:35;;;;;;;39.88;24.00;;;;;;;;;;5050625;28;20128;-74
2022/10/29 08:59:17;;;;;;;46.40;24.60;;;;;;;;;;5042690;28;20104;-71
2022/10/29 09:01:43;;;;;;;41.40;23.20;;;;;;;;;;5048072;28;20116;-72
2022/10/29 09:04:18;;;;;;;41.28;23.55;;;;;;;;;;5025099;28;20060;-76
2022/10/29 09:06:59;;;;;;;37.60;22.08;;;;;;;;;;5047049;28;20030;-77
2022/10/29 09:09:40;;;;;;;35.83;22.58;;;;;;;;;;5051771;28;20428;-77
2022/10/29 09:12:25;;;;;;;36.78;21.17;;;;;;;;;;5047547;28;20033;-75
2022/10/29 09:14:59;;;;;;;33.15;20.42;;;;;;;;;;5057022;28;20024;-76
2022/10/29 09:17:24;;;;;;;31.48;19.55;;;;;;;;;;5034114;28;20132;-76
2022/10/29 09:20:08;;;;;;;24.37;17.67;;;;;;;;;;5039193;28;20111;-74
2022/10/29 09:22:39;;;;;;;32.72;18.90;;;;;;;;;;5052497;28;20238;-75
2022/10/29 09:25:04;;;;;;;25.48;17.45;;;;;;;;;;5056023;28;20032;-74
2022/10/29 09:27:36;;;;;;;32.13;20.23;;;;;;;;;;5041707;28;20033;-74
2022/10/29 09:30:01;;;;;;;33.90;20.33;;;;;;;;;;5050636;28;20041;-75
2022/10/29 09:32:32;;;;;;;30.10;19.47;;;;;;;;;;5045554;28;20029;-74
2022/10/29 09:35:03;;;;;;;27.38;19.45;;;;;;;;;;5049109;28;20025;-75
2022/10/29 09:37:40;;;;;;;28.95;19.58;;;;;;;;;;5054232;28;20009;-76
2022/10/29 09:40:12;;;;;;;30.67;20.52;;;;;;;;;;5038434;28;20032;-75
2022/10/29 09:42:38;;;;;;;28.55;19.58;;;;;;;;;;5042842;28;20040;-73
2022/10/29 09:45:08;;;;;;;29.23;18.63;;;;;;;;;;5062557;28;20439;-72
2022/10/29 09:47:39;;;;;;;30.85;20.42;;;;;;;;;;5045270;28;20028;-73
2022/10/29 09:50:10;;;;;;;27.95;18.50;;;;;;;;;;5053661;28;20028;-73
2022/10/29 09:52:38;;;;;;;33.88;20.67;;;;;;;;;;5059149;28;20029;-75
2022/10/29 09:55:05;;;;;;;31.60;20.00;;;;;;;;;;5062368;28;20106;-76
2022/10/29 09:57:32;;;;;;;34.25;20.83;;;;;;;;;;5041693;28;20036;-76
2022/10/29 10:00:02;;;;;;;31.90;22.10;;;;;;;;;;5060881;28;20389;-75
2022/10/29 10:02:36;;;;;;;34.17;22.75;;;;;;;;;;5058768;28;20025;-77
2022/10/29 10:05:05;;;;;;;38.22;22.45;;;;;;;;;;5053361;28;20017;-75
2022/10/29 10:07:30;;;;;;;37.75;23.15;;;;;;;;;;5049279;28;20029;-75
2022/10/29 10:09:57;;;;;;;36.43;23.63;;;;;;;;;;5057907;28;20424;-75
2022/10/29 10:12:42;;;;;;;40.20;25.08;;;;;;;;;;5065537;28;20075;-74
2022/10/29 10:15:21;;;;;;;40.55;25.38;;;;;;;;;;5040301;28;20025;-75
2022/10/29 10:17:52;;;;;;;41.53;25.25;;;;;;;;;;5063678;28;20016;-75
2022/10/29 10:20:36;;;;;;;39.65;25.25;;;;;;;;;;5052520;28;20436;-76
2022/10/29 10:23:16;;;;;;;44.17;25.40;;;;;;;;;;5039208;28;20052;-72
2022/10/29 10:25:42;;;;;;;47.20;26.95;;;;;;;;;;5062096;28;20017;-73
2022/10/29 10:28:28;;;;;;;43.10;26.03;;;;;;;;;;5061179;28;20037;-73
2022/10/29 10:31:02;;;;;;;46.72;26.05;;;;;;;;;;5019581;28;20286;-71
2022/10/29 10:33:28;;;;;;;1999.90;734.92;;;;;;;;;;5058119;28;20524;-73
2022/10/29 10:35:53;;;;;;;117.60;61.40;;;;;;;;;;5056851;28;20028;-72
2022/10/29 10:38:19;;;;;;;85.78;44.03;;;;;;;;;;5034249;28;20029;-72
2022/10/29 10:40:52;;;;;;;70.07;36.63;;;;;;;;;;5058633;28;20025;-72
2022/10/29 10:43:19;;;;;;;59.78;33.45;;;;;;;;;;5023648;28;20048;-71
2022/10/29 10:45:50;;;;;;;54.63;30.50;;;;;;;;;;5064163;28;20048;-75
2022/10/29 10:48:16;;;;;;;44.83;27.38;;;;;;;;;;5055807;28;20032;-74
2022/10/29 10:50:42;;;;;;;42.15;26.23;;;;;;;;;;5054022;28;20117;-75
2022/10/29 10:53:18;;;;;;;38.95;25.48;;;;;;;;;;5029936;28;20155;-75
2022/10/29 10:56:02;;;;;;;42.15;26.85;;;;;;;;;;5028879;28;20086;-75
2022/10/29 10:58:41;;;;;;;37.58;24.83;;;;;;;;;;5045734;28;20029;-75
2022/10/29 11:01:06;;;;;;;;;;;;;;;;;;5026652;28;20214;-75
2022/10/29 11:03:42;;;;;;;35.42;23.15;;;;;;;;;;5047835;28;20390;-75
2022/10/29 11:06:11;;;;;;;36.10;23.50;;;;;;;;;;5051748;28;20029;-75
2022/10/29 11:08:40;;;;;;;35.85;23.33;;;;;;;;;;5045977;28;20028;-75
2022/10/29 11:11:20;;;;;;;34.97;22.15;;;;;;;;;;5067766;28;20020;-75
2022/10/29 11:13:46;;;;;;;40.28;23.77;;;;;;;;;;5053478;28;20398;-74
2022/10/29 11:16:18;;;;;;;36.17;24.13;;;;;;;;;;5054286;28;20025;-74
2022/10/29 11:18:53;;;;;;;32.97;22.75;;;;;;;;;;5030190;28;20113;-74
2022/10/29 11:21:25;;;;;;;33.33;22.48;;;;;;;;;;5050095;28;20021;-75
2022/10/29 11:23:50;;;;;;;33.20;23.60;;;;;;;;;;5053601;28;20381;-76
2022/10/29 11:26:27;;;;;;;37.00;23.37;;;;;;;;;;5035726;28;20037;-74
2022/10/29 11:28:55;;;;;;;32.85;23.65;;;;;;;;;;5045403;28;20495;-74
2022/10/29 11:31:21;;;;;;;34.85;23.92;;;;;;;;;;5034325;28;20116;-74
2022/10/29 11:34:09;;;;;;;36.50;24.07;;;;;;;;;;5032033;28;20029;-74
2022/10/29 11:36:41;;;;;;;41.25;25.73;;;;;;;13.74;nan;101653.75;5053840;28;20348;-74
2022/10/29 11:39:09;;;;;;;46.55;26.88;;;;;;;;;;5051854;28;20177;-75
2022/10/29 11:41:37;;;;;;;43.95;27.98;;;;;;;;;;5025967;28;20037;-74
2022/10/29 11:44:03;;;;;;;47.03;31.15;;;;;;;;;;5028273;28;20040;-70
2022/10/29 11:46:29;;;;;;;53.05;33.17;;;;;;;;;;5052546;28;20044;-71
2022/10/29 11:49:06;;;;;;;69.63;39.80;;;;;;;;;;5032366;28;20021;-71
2022/10/29 11:51:43;;;;;;;67.90;40.20;;;;;;;;;;5050377;28;20277;-71
2022/10/29 11:54:15;;;;;;;66.57;40.83;;;;;;;;;;5046049;28;20386;-70
2022/10/29 11:56:49;;;;;;;67.78;41.03;;;;;;;;;;5047046;28;20029;-71
2022/10/29 11:59:23;;;;;;;73.65;43.40;;;;;;;;;;5046363;28;20082;-72
2022/10/29 12:02:06;;;;;;;67.82;41.35;;;;;;;;;;5044367;28;20029;-71
2022/10/29 12:04:33;;;;;;;61.90;41.60;;;;;;;;;;5049790;28;20052;-72
2022/10/29 12:07:13;;;;;;;72.57;42.75;;;;;;;;;;5045622;28;20450;-70
2022/10/29 12:09:38;;;;;;;;;;;;;;;;;;5050163;28;20044;-71
2022/10/29 12:12:19;;;;;;;70.60;43.13;;;;;;;15.20;nan;101608.16;5052120;28;19916;-71
2022/10/29 12:15:03;;;;;;;64.13;38.80;;;;;;;15.24;nan;101551.75;5050075;28;20029;-70
2022/10/29 12:17:31;;;;;;;65.63;40.38;;;;;;;;;;5047992;28;20024;-71
2022/10/29 12:20:02;;;;;;;67.30;41.78;;;;;;;;;;5053125;28;20039;-74
2022/10/29 12:22:27;;;;;;;68.95;41.08;;;;;;;;;;5020507;28;20021;-69
2022/10/29 12:24:52;;;;;;;73.10;41.43;;;;;;;;;;5051605;28;20085;-69
2022/10/29 12:27:29;;;;;;;71.57;42.57;;;;;;;;;;5052861;28;20025;-71
2022/10/29 12:30:05;;;;;;;65.18;40.70;;;;;;;;;;5049190;28;20134;-68
2022/10/29 12:32:40;;;;;;;69.45;40.63;;;;;;;;;;5028775;28;20025;-70
2022/10/29 12:35:25;;;;;;;76.30;41.85;;;;;;;;;;5048192;28;20474;-69
2022/10/29 12:38:06;;;;;;;74.32;40.95;;;;;;;;;;5044860;28;20042;-70
2022/10/29 12:40:37;;;;;;;80.47;42.42;;;;;;;;;;5050246;28;20033;-69
2022/10/29 12:43:06;;;;;;;76.28;40.90;;;;;;;;;;5048075;28;20039;-69
2022/10/29 12:45:31;;;;;;;;;;;;;;;;;;5047974;28;20115;-68
2022/10/29 12:48:09;;;;;;;79.32;40.17;;;;;;;;;;5049258;28;20011;-68
2022/10/29 12:50:37;;;;;;;78.85;41.15;;;;;;;;;;5054267;28;20036;-68
2022/10/29 12:53:20;;;;;;;76.82;39.78;;;;;;;;;;5047685;28;20475;-70
2022/10/29 12:55:46;;;;;;;77.13;39.78;;;;;;;;;;5031069;28;20074;-69
2022/10/29 12:58:30;;;;;;;74.05;39.00;;;;;;;;;;5018746;28;20025;-70
2022/10/29 13:00:55;;;;;;;76.20;39.08;;;;;;;16.09;nan;101539.13;5049149;28;20024;-68
2022/10/29 13:03:47;;;;;;;73.40;38.10;;;;;;;;;;5050904;28;20028;-70
2022/10/29 13:06:31;;;;;;;70.28;37.42;;;;;;;;;;5017624;28;20119;-73
2022/10/29 13:08:56;;;;;;;68.85;36.00;;;;;;;;;;5022855;28;20418;-71
2022/10/29 13:11:23;;;;;;;63.83;35.20;;;;;;;;;;5050772;28;20100;-72
2022/10/29 13:13:51;;;;;;;70.68;35.75;;;;;;;;;;5053033;28;20025;-71
2022/10/29 13:16:19;;;;;;;65.43;35.42;;;;;;;;;;5047584;28;20482;-71
2022/10/29 13:18:47;;;;;;;64.35;33.13;;;;;;;;;;5056449;28;20050;-72
2022/10/29 13:21:32;;;;;;;57.33;31.67;;;;;;;;;;5053620;28;20021;-73
2022/10/29 13:24:02;;;;;;;55.70;29.45;;;;;;;;;;5055745;28;20063;-71
2022/10/29 13:26:46;;;;;;;52.28;28.23;;;;;;;;;;5031235;28;20067;-71
2022/10/29 13:29:32;;;;;;;50.78;28.23;;;;;;;;;;5052679;28;20044;-71
2022/10/29 13:32:00;;;;;;;47.92;27.40;;;;;;;;;;5034744;28;20021;-72
2022/10/29 13:34:44;;;;;;;45.35;27.63;;;;;;;;;;5056881;28;20051;-71
2022/10/29 13:37:28;;;;;;;47.05;27.30;;;;;;;;;;5044530;28;20474;-71
2022/10/29 13:40:16;;;;;;;45.72;24.58;;;;;;;;;;5029514;28;20036;-71
2022/10/29 13:42:42;;;;;;;42.75;24.83;;;;;;;;;;5045156;28;20036;-71
2022/10/29 13:45:12;;;;;;;42.95;25.23;;;;;;;16.43;nan;101526.81;5027872;28;20026;-72
2022/10/29 13:47:39;;;;;;;38.45;23.13;;;;;;;16.44;nan;101540.91;5051043;28;20027;-71
2022/10/29 13:50:06;;;;;;;39.95;23.30;;;;;;;;;;5063639;28;20028;-72
2022/10/29 13:52:36;;;;;;;41.65;22.45;;;;;;;;;;5022401;28;20426;-71
2022/10/29 13:55:05;;;;;;;34.53;21.67;;;;;;;;;;5029599;28;20079;-71
2022/10/29 13:57:36;;;;;;;34.72;22.80;;;;;;;;;;5027629;28;20540;-72
2022/10/29 14:00:15;;;;;;;32.22;21.10;;;;;;;;;;5048782;28;20029;-72
2022/10/29 14:02:41;;;;;;;35.45;21.92;;;;;;;;;;5049397;28;20454;-72
2022/10/29 14:05:14;;;;;;;35.80;21.33;;;;;;;;;;5046445;28;20079;-72
2022/10/29 14:07:54;;;;;;;35.15;21.50;;;;;;;;;;5029399;28;20355;-70
2022/10/29 14:10:25;;;;;;;33.28;22.20;;;;;;;;;;5024005;28;20051;-71
2022/10/29 14:12:53;;;;;;;36.92;22.40;;;;;;;;;;5047228;28;20028;-73
2022/10/29 14:15:18;;;;;;;35.65;21.73;;;;;;;;;;5048502;28;20029;-73
2022/10/29 14:17:43;;;;;;;30.80;21.17;;;;;;;;;;5067735;28;20112;-72
2022/10/29 14:20:24;;;;;;;31.93;21.30;;;;;;;15.79;nan;101481.66;5047415;28;20266;-73